Time;durP1;ratioP1;P1;durP2;ratioP2;P2;SDS_P1;SDS_P2;PMS_P1;PMS_P2;Temp;Humidity;BMP_temperature;BMP_pressure;BME280_temperature;BME280_humidity;BME280_pressure;Samples;Min_cycle;Max_cycle;Signal;HPM_P1;HPM_P2
2021/05/07 00:01:32;;;;;;;8.97;6.43;;;;;;;9.52;61.90;97903.16;2180078;81;21420;-78
2021/05/07 00:04:33;;;;;;;10.50;6.30;;;;;;;9.52;61.92;97899.69;2180368;81;21146;-78
2021/05/07 00:07:34;;;;;;;8.00;5.97;;;;;;;9.51;61.89;97893.61;2180257;81;21232;-78
2021/05/07 00:10:35;;;;;;;12.60;5.90;;;;;;;9.53;62.05;97894.48;2180175;81;21130;-78
2021/05/07 00:13:36;;;;;;;11.90;6.43;;;;;;;9.53;62.10;97898.39;2180502;81;21122;-78
2021/05/07 00:16:38;;;;;;;10.97;6.57;;;;;;;9.52;62.24;97896.65;2180591;81;21240;-78
2021/05/07 00:19:39;;;;;;;11.40;6.13;;;;;;;9.51;62.21;97895.34;2180205;81;21149;-78
2021/05/07 00:22:40;;;;;;;14.93;6.53;;;;;;;9.51;62.23;97892.74;2180152;81;21106;-78
2021/05/07 00:25:41;;;;;;;11.87;5.80;;;;;;;9.45;61.94;97888.39;2179977;81;21570;-78
2021/05/07 00:28:42;;;;;;;11.77;6.13;;;;;;;9.43;61.87;97888.83;2180024;81;21522;-77
2021/05/07 00:31:43;;;;;;;8.37;5.93;;;;;;;9.38;62.53;97884.05;2115313;84;21158;-78
2021/05/07 00:34:44;;;;;;;9.37;5.77;;;;;;;9.35;62.59;97884.04;2115254;84;21138;-78
2021/05/07 00:37:45;;;;;;;16.23;6.93;;;;;;;9.33;62.76;97879.27;2115487;84;21146;-79
2021/05/07 00:40:46;;;;;;;11.67;6.90;;;;;;;10.69;71.38;97877.44;2115918;84;21146;-79
2021/05/07 00:43:47;;;;;;;13.90;6.20;;;;;;;13.81;67.98;97864.77;2115470;84;21146;-79
2021/05/07 00:46:48;;;;;;;13.13;5.70;;;;;;;15.93;62.56;97862.22;2115748;84;21152;-79
2021/05/07 00:49:49;;;;;;;10.63;6.05;;;;;;;17.18;58.74;97853.53;2115528;84;21103;-80
2021/05/07 00:52:51;;;;;;;8.93;5.33;;;;;;;18.09;55.63;97849.77;2115820;84;21134;-80
2021/05/07 00:55:52;;;;;;;10.93;5.45;;;;;;;18.77;53.33;97850.95;2115535;84;21106;-80
2021/05/07 00:58:53;;;;;;;8.58;5.58;;;;;;;19.10;51.50;97850.19;2115503;84;21134;-79
2021/05/07 01:01:54;;;;;;;9.48;5.45;;;;;;;19.29;49.91;97843.27;2115482;84;21147;-80
2021/05/07 01:04:55;;;;;;;10.03;6.03;;;;;;;19.42;48.61;97838.36;2115450;84;21277;-79
2021/05/07 01:07:56;;;;;;;7.87;4.15;;;;;;;19.64;48.20;97839.25;2115371;84;21158;-81
2021/05/07 01:10:57;;;;;;;10.38;5.53;;;;;;;19.72;47.21;97831.86;2115538;84;21134;-78
2021/05/07 01:13:58;;;;;;;5.90;5.05;;;;;;;19.82;47.21;97829.70;2115575;84;21259;-79
2021/05/07 01:17:00;;;;;;;7.00;4.55;;;;;;;19.85;46.65;97827.38;2115516;84;21138;-79
2021/05/07 01:20:01;;;;;;;12.13;5.25;;;;;;;19.97;46.42;97815.85;2115461;84;21138;-80
2021/05/07 01:23:02;;;;;;;11.18;6.15;;;;;;;19.95;46.07;97817.70;2115498;84;21150;-79
2021/05/07 01:26:03;;;;;;;7.42;4.53;;;;;;;19.91;46.22;97820.52;2115383;84;21137;-80
2021/05/07 01:29:05;;;;;;;9.20;5.47;;;;;;;19.88;45.70;97820.64;2117879;81;21138;-79
2021/05/07 01:32:07;;;;;;;8.40;5.40;;;;;;;19.79;45.71;97814.40;2180138;81;21119;-80
2021/05/07 01:35:09;;;;;;;8.98;5.47;;;;;;;19.98;45.30;97808.77;2180336;81;21133;-79
2021/05/07 01:38:10;;;;;;;12.05;5.10;;;;;;;20.23;44.72;97805.92;2180090;81;21122;-78
2021/05/07 01:41:11;;;;;;;7.50;4.87;;;;;;;18.93;42.25;97802.33;2180044;81;21121;-78
2021/05/07 01:44:12;;;;;;;8.60;5.40;;;;;;;16.64;44.28;97798.45;2180060;81;21431;-80
2021/05/07 01:47:13;;;;;;;10.25;5.58;;;;;;;15.12;50.22;97805.37;2180418;82;21122;-80
2021/05/07 01:50:14;;;;;;;11.88;5.78;;;;;;;16.86;50.45;97791.68;2180311;81;21376;-80
2021/05/07 01:53:15;;;;;;;9.03;6.20;;;;;;;18.19;47.92;97784.29;2180215;81;21134;-80
2021/05/07 01:56:16;;;;;;;9.23;5.70;;;;;;;18.91;46.69;97777.27;2180310;81;21138;-80
2021/05/07 01:59:17;;;;;;;10.93;5.62;;;;;;;19.44;45.71;97780.08;2180069;81;21127;-79
2021/05/07 02:02:18;;;;;;;8.55;5.80;;;;;;;19.86;44.66;97762.91;2180102;81;21128;-80
2021/05/07 02:05:21;;;;;;;7.00;5.45;;;;;;;20.20;44.16;97763.20;2180015;82;21154;-79
2021/05/07 02:08:22;;;;;;;8.15;5.28;;;;;;;20.43;43.40;97755.59;2180115;81;21102;-79
2021/05/07 02:11:23;;;;;;;9.10;5.45;;;;;;;19.70;40.90;97763.55;2180070;82;21133;-79
2021/05/07 02:14:24;;;;;;;13.78;7.83;;;;;;;17.06;42.49;97764.26;2179933;81;21118;-79
2021/05/07 02:17:25;;;;;;;15.90;9.40;;;;;;;14.94;45.78;97771.62;2180182;81;21098;-79
2021/05/07 02:20:26;;;;;;;14.38;9.63;;;;;;;13.49;48.55;97768.28;2180026;81;21415;-78
2021/05/07 02:23:27;;;;;;;14.03;8.10;;;;;;;12.42;51.22;97775.03;2180084;81;21138;-79
2021/05/07 02:26:28;;;;;;;11.57;6.75;;;;;;;11.69;53.59;97782.31;2180155;82;21443;-79
2021/05/07 02:29:29;;;;;;;12.20;6.30;;;;;;;11.22;55.07;97779.64;2180179;81;21106;-80
2021/05/07 02:32:30;;;;;;;10.82;6.53;;;;;;;10.80;56.62;97786.89;2180165;81;21140;-79
2021/05/07 02:35:32;;;;;;;9.43;6.85;;;;;;;10.47;58.10;97784.46;2180283;81;21082;-79
2021/05/07 02:38:37;;;;;;;10.53;5.92;;;;;;;10.16;58.98;97784.52;2180480;81;21245;-79
2021/05/07 02:41:37;;;;;;;10.40;5.23;;;;;;;9.92;60.22;97774.60;2179973;81;21145;-79
2021/05/07 02:44:38;;;;;;;10.87;6.50;;;;;;;9.71;61.14;97772.91;2180155;81;21154;-79
2021/05/07 02:47:39;;;;;;;9.90;5.60;;;;;;;9.53;62.07;97760.75;2180048;81;21126;-79
2021/05/07 02:50:40;;;;;;;8.60;6.23;;;;;;;9.38;62.62;97758.16;2180274;82;21233;-79
2021/05/07 02:53:41;;;;;;;8.13;6.40;;;;;;;9.22;63.67;97752.09;2180198;81;21392;-78
2021/05/07 02:56:43;;;;;;;10.60;6.80;;;;;;;9.07;64.18;97750.36;2180554;81;21420;-78
2021/05/07 02:59:44;;;;;;;11.07;7.30;;;;;;;8.95;64.65;97745.15;2180201;81;21395;-78
2021/05/07 03:02:45;;;;;;;15.10;7.23;;;;;;;8.88;65.18;97743.41;2180403;81;21142;-78
2021/05/07 03:05:46;;;;;;;12.63;7.17;;;;;;;8.80;65.62;97738.19;2180431;81;21451;-78
2021/05/07 03:08:47;;;;;;;11.17;5.90;;;;;;;8.74;66.22;97736.02;2180432;81;21411;-78
2021/05/07 03:11:48;;;;;;;7.77;5.00;;;;;;;8.70;66.53;97732.55;2180385;81;21114;-78
2021/05/07 03:14:49;;;;;;;7.13;4.73;;;;;;;8.64;67.22;97720.80;2180260;81;21133;-77
2021/05/07 03:17:53;;;;;;;6.67;5.07;;;;;;;8.61;67.33;97716.89;2180442;81;21130;-79
2021/05/07 03:20:53;;;;;;;11.20;5.00;;;;;;;10.03;76.55;97717.64;2180731;82;21146;-79
2021/05/07 03:23:54;;;;;;;7.97;4.37;;;;;;;13.55;67.41;97701.33;2180750;81;21114;-79
2021/05/07 03:26:55;;;;;;;6.17;4.50;;;;;;;15.35;60.81;97699.66;2180874;81;21312;-79
2021/05/07 03:29:56;;;;;;;8.05;4.20;;;;;;;16.75;56.27;97696.27;2180537;81;21117;-79
2021/05/07 03:32:57;;;;;;;8.80;3.65;;;;;;;17.70;51.55;97693.61;2180608;81;21356;-79
2021/05/07 03:35:59;;;;;;;4.97;4.17;;;;;;;18.27;49.64;97696.42;2180480;81;21134;-78
2021/05/07 03:39:00;;;;;;;4.87;3.80;;;;;;;18.57;49.24;97682.52;2180560;81;21101;-79
2021/05/07 03:42:01;;;;;;;51.35;39.88;;;;;;;18.75;46.55;97679.19;2180649;81;21102;-79
2021/05/07 03:45:02;;;;;;;8.78;4.53;;;;;;;18.59;45.27;97678.48;2180370;82;21157;-79
2021/05/07 03:48:03;;;;;;;6.35;3.60;;;;;;;18.14;45.37;97680.14;2180327;81;21078;-79
2021/05/07 03:51:04;;;;;;;5.95;3.55;;;;;;;17.76;45.47;97676.24;2180342;81;21118;-80
2021/05/07 03:54:05;;;;;;;6.80;3.65;;;;;;;17.51;46.26;97674.02;2180025;81;21114;-80
2021/05/07 03:57:08;;;;;;;4.67;3.25;;;;;;;17.62;46.26;97671.88;2179341;81;21145;-79
2021/05/07 04:00:09;;;;;;;5.70;3.20;;;;;;;17.54;46.65;97663.36;2179808;81;21102;-78
2021/05/07 04:03:10;;;;;;;4.53;3.33;;;;;;;17.82;46.80;97673.84;2180083;81;21121;-79
2021/05/07 04:06:16;;;;;;;4.08;3.27;;;;;;;18.27;46.25;97677.08;2179984;81;21177;-79
2021/05/07 04:09:17;;;;;;;3.37;3.08;;;;;;;18.46;46.02;97681.60;2179660;82;21150;-78
2021/05/07 04:12:22;;;;;;;6.45;3.70;;;;;;;18.55;45.39;97676.88;2179862;82;21130;-78
2021/05/07 04:15:21;;;;;;;8.98;4.33;;;;;;;18.36;45.28;97676.73;2179801;82;21121;-80
2021/05/07 04:18:22;;;;;;;8.03;3.92;;;;;;;18.40;45.85;97673.91;2180394;81;21248;-77
2021/05/07 04:21:26;;;;;;;5.03;3.40;;;;;;;18.56;45.81;97673.32;2180900;81;21121;-80
2021/05/07 04:24:27;;;;;;;5.72;3.35;;;;;;;18.77;44.97;97670.73;2180252;81;21154;-81
2021/05/07 04:27:28;;;;;;;5.28;3.50;;;;;;;18.95;44.62;97673.56;2180148;81;21127;-80
2021/05/07 04:30:31;;;;;;;4.10;2.95;;;;;;;19.20;44.17;97668.17;2179941;81;21114;-79
2021/05/07 04:33:32;;;;;;;4.70;2.85;;;;;;;19.35;43.37;97667.53;2180395;81;21387;-80
2021/05/07 04:36:33;;;;;;;6.85;3.20;;;;;;;19.49;42.54;97667.81;2180170;81;21228;-80
2021/05/07 04:39:34;;;;;;;5.37;3.37;;;;;;;19.67;43.10;97669.70;2180274;81;21105;-80
2021/05/07 04:42:35;;;;;;;9.90;3.60;;;;;;;19.86;42.08;97668.90;2179648;81;21126;-81
2021/05/07 04:45:36;;;;;;;6.28;2.90;;;;;;;19.85;41.77;97662.74;2179941;81;21169;-82
2021/05/07 04:48:37;;;;;;;5.67;3.42;;;;;;;19.96;41.54;97656.54;2179823;81;21114;-81
2021/05/07 04:51:39;;;;;;;5.40;3.20;;;;;;;20.15;41.24;97661.01;2179539;81;21118;-81
2021/05/07 04:54:40;;;;;;;35.80;30.82;;;;;;;20.27;40.83;97656.48;2180722;82;21232;-81
2021/05/07 04:57:41;;;;;;;42.55;11.22;;;;;;;19.91;40.60;97658.97;2180733;82;21232;-81
2021/05/07 05:00:42;;;;;;;9.65;7.05;;;;;;;19.20;42.00;97656.27;2180369;82;21110;-80
2021/05/07 05:03:43;;;;;;;9.63;5.42;;;;;;;19.32;42.61;97657.08;2180851;81;21420;-79
2021/05/07 05:06:44;;;;;;;5.28;4.10;;;;;;;19.52;44.02;97657.12;2180425;81;21268;-81
2021/05/07 05:09:46;;;;;;;6.12;4.03;;;;;;;19.70;43.75;97658.12;2180331;81;21138;-80
2021/05/07 05:12:47;;;;;;;5.92;3.77;;;;;;;19.98;43.55;97653.83;2180415;82;21137;-81
2021/05/07 05:15:48;;;;;;;693.17;523.73;;;;;;;20.27;42.70;97649.39;2180767;81;21110;-81
2021/05/07 05:18:49;;;;;;;595.42;427.28;;;;;;;19.85;42.56;97647.31;2180882;82;21102;-81
2021/05/07 05:21:50;;;;;;;506.43;326.55;;;;;;;19.28;43.25;97655.48;2180624;82;21126;-80
2021/05/07 05:24:51;;;;;;;303.95;200.22;;;;;;;19.09;43.44;97654.92;2180277;82;21142;-80
2021/05/07 05:27:52;;;;;;;402.62;242.68;;;;;;;18.65;44.12;97660.64;2180710;82;21102;-79
2021/05/07 05:30:53;;;;;;;223.72;121.77;;;;;;;18.70;44.29;97657.82;2173953;81;21142;-79
2021/05/07 05:33:54;;;;;;;22.70;12.10;;;;;;;18.50;44.34;97663.85;2161795;82;21544;-80
2021/05/07 05:36:55;;;;;;;17.40;7.92;;;;;;;18.14;45.04;97657.69;2162947;82;21111;-79
2021/05/07 05:39:56;;;;;;;9.83;6.92;;;;;;;17.98;45.47;97662.27;2162880;82;21324;-81
2021/05/07 05:42:58;;;;;;;11.40;6.03;;;;;;;17.83;45.89;97653.98;2162491;82;21230;-80
2021/05/07 05:45:59;;;;;;;8.93;6.03;;;;;;;18.29;45.47;97658.92;2162877;82;21158;-81
2021/05/07 05:49:00;;;;;;;7.37;5.45;;;;;;;18.39;44.78;97654.16;2162829;82;21241;-82
2021/05/07 05:52:02;;;;;;;12.60;5.53;;;;;;;18.46;44.52;97640.65;2162973;82;21107;-79
2021/05/07 05:55:03;;;;;;;8.70;5.50;;;;;;;18.26;45.20;97649.80;2163137;82;21237;-81
2021/05/07 05:58:04;;;;;;;11.38;5.85;;;;;;;18.36;45.88;97652.95;2163421;82;21499;-80
2021/05/07 06:01:05;;;;;;;8.03;5.15;;;;;;;18.72;45.14;97650.69;2163452;82;21150;-80
2021/05/07 06:04:06;;;;;;;48.00;35.70;;;;;;;18.74;44.64;97651.48;2163413;82;21252;-80
2021/05/07 06:07:07;;;;;;;11.83;7.10;;;;;;;18.63;45.13;97653.70;2163090;82;21127;-81
2021/05/07 06:10:09;;;;;;;12.00;7.70;;;;;;;18.69;45.33;97656.96;2163123;82;21242;-81
2021/05/07 06:13:11;;;;;;;10.90;6.58;;;;;;;19.08;44.65;97653.20;2163114;82;21110;-81
2021/05/07 06:16:12;;;;;;;10.58;5.97;;;;;;;19.05;43.87;97651.11;2163065;82;21249;-80
2021/05/07 06:19:13;;;;;;;9.43;6.12;;;;;;;19.22;43.66;97653.09;2163189;82;21245;-80
2021/05/07 06:22:14;;;;;;;11.90;6.30;;;;;;;19.16;43.40;97658.64;2163222;82;21118;-80
2021/05/07 06:25:16;;;;;;;10.63;6.03;;;;;;;19.13;43.81;97660.95;2162995;82;21253;-81
2021/05/07 06:28:18;;;;;;;9.95;6.62;;;;;;;19.36;42.84;97658.20;2163014;82;21110;-82
2021/05/07 06:31:21;;;;;;;18.67;7.47;;;;;;;19.24;42.92;97660.50;2166688;81;21548;-78
2021/05/07 06:34:22;;;;;;;53.28;11.22;;;;;;;18.74;42.98;97659.42;2172918;82;21237;-81
2021/05/07 06:37:23;;;;;;;21.97;6.28;;;;;;;18.43;44.25;97658.40;2172897;81;21387;-81
2021/05/07 06:40:24;;;;;;;9.78;6.03;;;;;;;18.80;43.82;97661.82;2173386;82;21129;-83
2021/05/07 06:43:26;;;;;;;1911.63;981.80;;;;;;;18.99;43.83;97669.41;2172914;82;21134;-80
2021/05/07 06:46:27;;;;;;;622.42;452.43;;;;;;;19.32;43.72;97664.55;2171131;81;21503;-81
2021/05/07 06:49:29;;;;;;;223.03;141.77;;;;;;;19.36;43.33;97663.50;2171423;81;21130;-82
2021/05/07 06:52:38;;;;;;;93.07;51.73;;;;;;;19.49;43.39;97670.92;2171471;81;21446;-80
2021/05/07 06:55:39;;;;;;;110.28;58.25;;;;;;;19.06;43.73;97668.70;2173024;82;21114;-81
2021/05/07 06:58:40;;;;;;;11.00;7.72;;;;;;;18.93;44.17;97673.63;2172779;81;21118;-83
2021/05/07 07:01:41;;;;;;;438.57;326.27;;;;;;;18.78;44.54;97684.35;2173068;82;21419;-82
2021/05/07 07:04:45;;;;;;;66.95;39.92;;;;;;;18.56;45.33;97666.72;2173213;82;21297;-82
2021/05/07 07:07:46;;;;;;;24.98;14.40;;;;;;;18.40;45.31;97671.27;2173172;82;21323;-80
2021/05/07 07:10:47;;;;;;;143.85;84.13;;;;;;;18.27;45.58;97667.83;2173176;81;21126;-82
2021/05/07 07:13:51;;;;;;;301.95;197.13;;;;;;;18.19;45.73;97665.44;2173333;81;21126;-82
2021/05/07 07:16:52;;;;;;;590.85;400.80;;;;;;;17.32;47.41;97670.25;2173446;81;21117;-80
2021/05/07 07:19:53;;;;;;;24.60;13.62;;;;;;;17.55;48.23;97671.69;2172969;81;21087;-83
2021/05/07 07:22:56;;;;;;;16.23;10.00;;;;;;;17.16;47.45;97676.04;2144100;82;21086;-82
2021/05/07 07:25:57;;;;;;;21.77;9.88;;;;;;;16.92;48.83;97673.34;2173381;82;21130;-81
2021/05/07 07:28:58;;;;;;;25.17;11.10;;;;;;;17.31;48.65;97668.53;2173600;82;21083;-80
2021/05/07 07:31:59;;;;;;;21.40;11.00;;;;;;;17.43;48.44;97676.06;2177209;81;21138;-81
2021/05/07 07:35:02;;;;;;;26.40;15.55;;;;;;;17.09;47.95;97678.47;2180582;82;21142;-81
2021/05/07 07:38:03;;;;;;;20.40;13.13;;;;;;;16.62;49.35;97685.67;2180711;82;21142;-80
2021/05/07 07:41:04;;;;;;;13.83;8.13;;;;;;;16.72;50.75;97680.56;2180540;82;21431;-82
2021/05/07 07:44:05;;;;;;;14.15;7.20;;;;;;;16.55;49.01;97678.41;2180532;81;21137;-80
2021/05/07 07:47:06;;;;;;;9.68;6.75;;;;;;;15.58;50.11;97688.12;2180636;81;21511;-82
2021/05/07 07:50:07;;;;;;;15.88;8.75;;;;;;;14.95;52.42;97691.90;2180625;81;21153;-79
2021/05/07 07:53:08;;;;;;;13.38;8.48;;;;;;;14.35;54.20;97698.88;2180728;82;21142;-81
2021/05/07 07:56:09;;;;;;;26.90;11.68;;;;;;;13.66;56.21;97700.23;2180470;81;21404;-81
2021/05/07 07:59:10;;;;;;;14.10;9.48;;;;;;;13.13;57.83;97699.84;2180763;82;21249;-81
2021/05/07 08:02:11;;;;;;;15.40;9.03;;;;;;;12.72;59.06;97705.24;2180408;81;21138;-79
2021/05/07 08:05:13;;;;;;;10.45;7.33;;;;;;;12.50;59.85;97702.52;2180394;81;21149;-80
2021/05/07 08:08:14;;;;;;;12.58;6.90;;;;;;;12.49;59.76;97704.71;2180368;81;21566;-80
2021/05/07 08:11:15;;;;;;;7.67;5.40;;;;;;;12.73;60.36;97706.98;2180559;81;21249;-80
2021/05/07 08:14:16;;;;;;;10.70;6.12;;;;;;;13.08;59.90;97705.59;2180702;81;21083;-81
2021/05/07 08:17:17;;;;;;;8.40;5.85;;;;;;;13.35;60.34;97714.34;2180524;82;21446;-79
2021/05/07 08:20:18;;;;;;;10.90;5.90;;;;;;;13.55;58.57;97712.67;2180675;81;21114;-81
2021/05/07 08:23:19;;;;;;;17.55;8.33;;;;;;;13.77;58.72;97714.45;2180594;81;21106;-80
2021/05/07 08:26:20;;;;;;;9.23;6.00;;;;;;;13.90;57.76;97709.42;2179914;81;21122;-80
2021/05/07 08:29:21;;;;;;;7.87;6.15;;;;;;;14.25;57.88;97715.28;2179642;81;21082;-80
2021/05/07 08:32:22;;;;;;;8.25;5.80;;;;;;;14.62;57.65;97716.70;2180691;81;21150;-81
2021/05/07 08:35:24;;;;;;;22.73;10.40;;;;;;;14.77;57.00;97714.66;2180718;81;21110;-80
2021/05/07 08:38:25;;;;;;;11.93;7.28;;;;;;;14.73;57.71;97707.72;2180435;82;21086;-79
2021/05/07 08:41:26;;;;;;;25.65;13.08;;;;;;;15.73;58.72;97706.63;2180516;81;21433;-79
2021/05/07 08:44:27;;;;;;;185.05;116.53;;;;;;;16.31;56.43;97712.89;2180558;82;21157;-80
2021/05/07 08:47:32;;;;;;;75.67;42.10;;;;;;;16.23;53.39;97714.43;2180098;82;21392;-79
2021/05/07 08:50:32;;;;;;;208.50;128.73;;;;;;;16.54;52.48;97719.70;2180743;82;21158;-80
2021/05/07 08:53:33;;;;;;;183.57;121.75;;;;;;;16.25;52.60;97722.28;2180554;82;21126;-81
2021/05/07 08:56:34;;;;;;;761.92;547.48;;;;;;;16.51;54.05;97730.78;2180827;82;21114;-81
2021/05/07 08:59:36;;;;;;;521.60;364.48;;;;;;;16.63;51.11;97734.36;2180853;82;21122;-83
2021/05/07 09:02:37;;;;;;;349.00;222.67;;;;;;;16.58;52.51;97731.45;2181340;82;21170;-81
2021/05/07 09:05:38;;;;;;;100.90;58.52;;;;;;;17.02;52.99;97738.90;2181455;82;21146;-82
2021/05/07 09:08:40;;;;;;;265.92;170.50;;;;;;;17.41;54.17;97751.75;2180735;82;21102;-81
2021/05/07 09:11:41;;;;;;;273.45;165.75;;;;;;;17.96;51.55;97755.19;2179978;82;21118;-81
2021/05/07 09:14:42;;;;;;;88.92;47.95;;;;;;;18.02;51.15;97756.30;2180002;82;21109;-82
2021/05/07 09:17:43;;;;;;;428.45;276.48;;;;;;;17.64;51.77;97755.80;2180249;82;21614;-80
2021/05/07 09:20:44;;;;;;;269.95;169.22;;;;;;;17.49;51.75;97761.59;2180347;82;21419;-82
2021/05/07 09:23:46;;;;;;;49.90;25.75;;;;;;;17.41;53.00;97764.48;2180802;82;21384;-83
2021/05/07 09:26:49;;;;;;;27.67;13.50;;;;;;;17.74;50.58;97753.30;2180700;82;21177;-80
2021/05/07 09:29:50;;;;;;;14.03;11.33;;;;;;;18.20;51.09;97760.92;2179706;82;21224;-83
2021/05/07 09:32:54;;;;;;;94.15;64.25;;;;;;;18.01;49.41;97750.16;2168623;81;21433;-82
2021/05/07 09:35:59;;;;;;;13.18;8.40;;;;;;;17.54;49.78;97753.52;2163753;82;21111;-82
2021/05/07 09:39:00;;;;;;;3.17;2.47;;;;;;;17.67;49.35;97762.33;2162703;82;21114;-83
2021/05/07 09:42:04;;;;;;;3.90;3.58;;;;;;;17.04;49.77;97762.13;2162694;82;21095;-83
2021/05/07 09:45:18;;;;;;;5.85;3.40;;;;;;;16.58;50.43;97775.79;2162895;82;21142;-82
2021/05/07 09:48:21;;;;;;;3.08;2.72;;;;;;;16.32;51.16;97775.64;2163247;82;21115;-81
2021/05/07 09:51:22;;;;;;;4.35;3.45;;;;;;;16.17;51.63;97771.66;2162988;82;21412;-81
2021/05/07 09:54:23;;;;;;;5.03;3.02;;;;;;;16.06;51.77;97776.36;2163007;82;21238;-80
2021/05/07 09:57:24;;;;;;;4.45;3.90;;;;;;;16.05;51.52;97767.59;2163006;82;21240;-82
2021/05/07 10:00:25;;;;;;;3.80;3.50;;;;;;;15.62;53.14;97787.59;2163086;82;21107;-80
2021/05/07 10:03:26;;;;;;;4.72;4.33;;;;;;;15.33;54.07;97796.57;2163176;82;21135;-81
2021/05/07 10:06:28;;;;;;;6.97;4.60;;;;;;;15.19;54.42;97793.81;2162886;82;21123;-81
2021/05/07 10:09:30;;;;;;;7.08;4.80;;;;;;;15.89;53.29;97795.22;2162943;82;21515;-81
2021/05/07 10:12:32;;;;;;;5.60;5.10;;;;;;;15.67;53.10;97785.70;2162890;82;21261;-81
2021/05/07 10:15:36;;;;;;;5.83;5.30;;;;;;;15.38;53.91;97781.55;2162723;82;21261;-80
2021/05/07 10:18:38;;;;;;;5.65;5.03;;;;;;;15.57;53.15;97783.72;2162999;82;21146;-80
2021/05/07 10:21:39;;;;;;;8.55;4.75;;;;;;;15.86;52.72;97794.85;2162984;82;21245;-80
2021/05/07 10:24:42;;;;;;;5.95;5.05;;;;;;;16.11;51.46;97799.02;2163123;82;21281;-81
2021/05/07 10:27:43;;;;;;;5.60;5.10;;;;;;;15.95;52.27;97799.02;2163200;82;21385;-80
2021/05/07 10:30:44;;;;;;;5.20;4.70;;;;;;;15.81;51.79;97812.53;2163021;82;21249;-81
2021/05/07 10:33:45;;;;;;;6.97;5.10;;;;;;;15.98;51.87;97803.33;2163732;81;21115;-82
2021/05/07 10:36:47;;;;;;;79.92;54.67;;;;;;;16.02;51.73;97811.56;2163080;82;21114;-81
2021/05/07 10:39:48;;;;;;;101.30;67.40;;;;;;;16.17;52.02;97809.38;2162574;82;21273;-82
2021/05/07 10:42:50;;;;;;;134.63;78.80;;;;;;;16.42;51.80;97821.42;2162977;82;21261;-82
2021/05/07 10:45:52;;;;;;;8.70;7.62;;;;;;;16.35;52.23;97825.14;2163216;82;21563;-83
2021/05/07 10:48:53;;;;;;;8.93;8.13;;;;;;;15.55;52.42;97824.08;2163388;82;21116;-82
2021/05/07 10:51:55;;;;;;;8.38;7.22;;;;;;;14.45;54.52;97851.87;2163233;82;21226;-82
2021/05/07 10:54:56;;;;;;;9.25;7.12;;;;;;;14.32;54.37;97865.19;2163188;82;21134;-82
2021/05/07 10:57:58;;;;;;;8.83;7.60;;;;;;;13.64;56.78;97857.17;2163011;82;21238;-80
2021/05/07 11:01:00;;;;;;;7.95;7.15;;;;;;;12.93;59.49;97869.51;2163011;82;21134;-80
2021/05/07 11:04:01;;;;;;;6.15;5.55;;;;;;;12.35;61.18;97867.58;2162636;82;21264;-80
2021/05/07 11:07:02;;;;;;;9.38;6.00;;;;;;;12.09;61.77;97886.12;2163116;82;21170;-81
2021/05/07 11:10:03;;;;;;;8.75;5.80;;;;;;;11.86;62.03;97878.49;2162500;82;21646;-80
2021/05/07 11:13:04;;;;;;;7.05;6.22;;;;;;;11.80;62.18;97885.95;2162199;82;21271;-80
2021/05/07 11:16:05;;;;;;;7.03;6.33;;;;;;;11.88;62.40;97871.94;2163121;82;21119;-82
2021/05/07 11:19:06;;;;;;;6.35;5.70;;;;;;;12.17;63.25;97876.94;2163262;82;21126;-81
2021/05/07 11:22:09;;;;;;;11.22;7.30;;;;;;;12.38;61.91;97876.71;2162975;82;21115;-80
2021/05/07 11:25:10;;;;;;;7.72;5.83;;;;;;;12.62;61.09;97875.13;2163399;82;21139;-80
2021/05/07 11:28:12;;;;;;;7.28;6.12;;;;;;;12.64;60.88;97874.66;2163640;82;21159;-81
2021/05/07 11:31:13;;;;;;;6.05;5.50;;;;;;;12.66;60.78;97869.41;2162830;82;21242;-81
2021/05/07 11:34:14;;;;;;;5.03;4.53;;;;;;;12.94;60.24;97864.69;2162478;81;21171;-81
2021/05/07 11:37:15;;;;;;;9.50;4.20;;;;;;;13.34;57.53;97858.52;2163113;82;21481;-81
2021/05/07 11:40:16;;;;;;;4.10;3.70;;;;;;;13.58;55.67;97852.90;2163402;82;21111;-82
2021/05/07 11:43:17;;;;;;;5.05;4.55;;;;;;;13.62;55.21;97857.20;2163194;82;21131;-81
2021/05/07 11:46:19;;;;;;;6.45;4.60;;;;;;;13.56;56.10;97866.92;2162419;82;21165;-82
2021/05/07 11:49:21;;;;;;;3.80;3.50;;;;;;;13.45;56.33;97867.08;2162402;82;21162;-80
2021/05/07 11:52:22;;;;;;;7.33;4.08;;;;;;;13.51;55.38;97870.92;2162547;82;21143;-82
2021/05/07 11:55:23;;;;;;;3.95;3.55;;;;;;;13.72;55.65;97853.98;2162993;82;21146;-81
2021/05/07 11:58:24;;;;;;;6.67;5.50;;;;;;;13.96;54.17;97854.91;2163081;82;21138;-80
2021/05/07 12:01:28;;;;;;;4.20;3.80;;;;;;;13.82;53.84;97854.25;2163100;82;21098;-79
2021/05/07 12:04:30;;;;;;;4.00;3.40;;;;;;;13.50;53.99;97851.28;2162962;82;21138;-79
2021/05/07 12:07:31;;;;;;;4.47;4.00;;;;;;;13.90;53.77;97844.53;2162466;82;21258;-78
2021/05/07 12:10:32;;;;;;;5.00;4.10;;;;;;;14.04;53.33;97846.91;2163324;82;21107;-80
2021/05/07 12:13:33;;;;;;;8.63;5.22;;;;;;;14.13;52.95;97849.81;2163300;82;21122;-80
2021/05/07 12:16:34;;;;;;;7.22;4.83;;;;;;;14.14;52.25;97853.72;2163255;82;21507;-80
2021/05/07 12:19:35;;;;;;;4.50;3.70;;;;;;;13.97;51.32;97846.15;2162565;82;21135;-79
2021/05/07 12:22:36;;;;;;;4.75;3.92;;;;;;;13.87;51.32;97843.27;2162528;82;21238;-80
2021/05/07 12:25:37;;;;;;;3.60;3.30;;;;;;;13.77;52.63;97840.34;2163484;82;21155;-81
2021/05/07 12:28:38;;;;;;;5.08;2.62;;;;;;;13.49;54.80;97860.04;2163621;82;21107;-79
2021/05/07 12:31:39;;;;;;;4.28;2.70;;;;;;;13.09;53.93;97857.97;2163105;82;21454;-80
2021/05/07 12:34:41;;;;;;;3.17;2.87;;;;;;;13.18;53.79;97865.73;2163195;81;21119;-80
2021/05/07 12:37:42;;;;;;;2.80;2.00;;;;;;;13.59;54.92;97859.00;2163381;82;21122;-80
2021/05/07 12:40:43;;;;;;;2.55;2.20;;;;;;;13.90;52.18;97871.20;2163393;82;21519;-78
2021/05/07 12:43:44;;;;;;;2.55;2.35;;;;;;;14.19;50.76;97873.32;2161598;82;21504;-80
2021/05/07 12:46:45;;;;;;;2.83;2.55;;;;;;;14.31;51.19;97871.34;2161151;82;21209;-80
2021/05/07 12:49:46;;;;;;;4.75;3.25;;;;;;;14.37;51.81;97872.98;2161714;82;21500;-79
2021/05/07 12:52:48;;;;;;;2.72;2.12;;;;;;;14.44;51.80;97861.95;2162318;82;21266;-79
2021/05/07 12:55:49;;;;;;;4.70;2.77;;;;;;;14.08;50.83;97881.38;2162512;82;21107;-78
2021/05/07 12:58:50;;;;;;;2.60;2.40;;;;;;;14.24;51.75;97885.47;2162421;82;21253;-79
2021/05/07 13:01:51;;;;;;;2.62;2.42;;;;;;;14.34;50.80;97900.16;2162639;82;21236;-79
2021/05/07 13:04:52;;;;;;;2.95;2.20;;;;;;;14.83;49.67;97898.42;2162908;82;21281;-80
2021/05/07 13:07:53;;;;;;;2.77;2.52;;;;;;;15.27;48.77;97909.31;2162947;82;21122;-80
2021/05/07 13:10:54;;;;;;;3.65;2.87;;;;;;;15.31;47.80;97917.55;2162880;82;21229;-80
2021/05/07 13:13:55;;;;;;;3.35;2.70;;;;;;;15.21;47.87;97911.63;2162599;82;21393;-78
2021/05/07 13:16:57;;;;;;;2.37;2.17;;;;;;;14.83;48.69;97911.55;2162808;82;21229;-76
2021/05/07 13:19:58;;;;;;;3.30;2.55;;;;;;;14.65;48.23;97922.80;2162810;82;21091;-78
2021/05/07 13:22:59;;;;;;;6.72;3.22;;;;;;;14.43;49.17;97899.16;2162783;82;21233;-79
2021/05/07 13:26:00;;;;;;;7.78;2.52;;;;;;;14.57;48.78;97908.09;2163019;82;21115;-79
2021/05/07 13:29:02;;;;;;;4.95;2.55;;;;;;;14.60;48.08;97919.84;2162963;82;21094;-79
2021/05/07 13:32:05;;;;;;;5.72;3.80;;;;;;;14.56;47.08;97929.55;2163311;81;21380;-78
2021/05/07 13:35:06;;;;;;;3.02;2.72;;;;;;;14.71;47.46;97926.20;2163212;82;21314;-78
2021/05/07 13:38:07;;;;;;;2.58;2.37;;;;;;;14.77;47.37;97928.75;2163145;82;21381;-79
2021/05/07 13:41:08;;;;;;;2.98;2.27;;;;;;;14.90;45.83;97936.81;2163192;82;21249;-80
2021/05/07 13:44:09;;;;;;;3.12;2.52;;;;;;;14.94;45.69;97938.48;2162984;82;21250;-80
2021/05/07 13:47:12;;;;;;;3.02;2.83;;;;;;;14.99;45.49;97930.05;2162963;82;21142;-79
2021/05/07 13:50:13;;;;;;;15.08;4.15;;;;;;;15.18;45.94;97934.03;2162962;82;21392;-80
2021/05/07 13:53:14;;;;;;;12.15;4.08;;;;;;;15.23;44.93;97944.00;2162720;82;21234;-80
2021/05/07 13:56:15;;;;;;;6.90;2.72;;;;;;;15.12;45.49;97934.61;2163019;82;21079;-80
2021/05/07 13:59:19;;;;;;;8.98;3.20;;;;;;;15.09;45.11;97939.93;2162826;82;21528;-80
2021/05/07 14:02:19;;;;;;;6.53;3.10;;;;;;;14.62;44.92;97950.44;2163165;82;21250;-79
2021/05/07 14:05:22;;;;;;;5.80;3.10;;;;;;;14.50;45.36;97945.86;2162991;82;21555;-81